Time;durP1;ratioP1;P1;durP2;ratioP2;P2;SDS_P1;SDS_P2;PMS_P1;PMS_P2;Temp;Humidity;BMP_temperature;BMP_pressure;BME280_temperature;BME280_humidity;BME280_pressure;Samples;Min_cycle;Max_cycle;Signal;HPM_P1;HPM_P2
2021/05/01 00:01:10;;;;;;;24.70;22.10;;;9.10;99.90;;;;;;5015009;28;20243;-40
2021/05/01 00:03:36;;;;;;;24.85;22.35;;;8.90;99.90;;;;;;5014271;28;20221;-39
2021/05/01 00:06:04;;;;;;;26.52;23.83;;;8.80;99.90;;;;;;5013880;28;20203;-39
2021/05/01 00:08:30;;;;;;;24.05;21.70;;;8.80;99.90;;;;;;5004107;28;20193;-40
2021/05/01 00:11:01;;;;;;;24.10;21.60;;;8.90;99.90;;;;;;5011744;28;20678;-40
2021/05/01 00:13:28;;;;;;;24.38;21.13;;;9.10;99.90;;;;;;5011408;28;20225;-40
2021/05/01 00:15:55;;;;;;;24.42;21.92;;;9.20;99.90;;;;;;4999856;28;20205;-42
2021/05/01 00:18:22;;;;;;;27.60;24.17;;;9.30;99.90;;;;;;5002902;28;20672;-40
2021/05/01 00:20:48;;;;;;;26.27;23.38;;;9.30;99.90;;;;;;5009392;28;20647;-42
2021/05/01 00:23:15;;;;;;;25.58;22.98;;;9.30;99.90;;;;;;5008817;28;20751;-40
2021/05/01 00:25:43;;;;;;;24.05;21.65;;;9.30;99.90;;;;;;5007688;28;20254;-40
2021/05/01 00:28:11;;;;;;;27.27;23.90;;;9.10;99.90;;;;;;5003414;28;20201;-44
2021/05/01 00:30:41;;;;;;;27.08;24.17;;;9.10;99.90;;;;;;5003115;28;20217;-41
2021/05/01 00:33:10;;;;;;;27.75;24.90;;;9.00;99.90;;;;;;4996833;28;20603;-40
2021/05/01 00:35:39;;;;;;;26.40;23.60;;;8.90;99.90;;;;;;5004782;28;20667;-40
2021/05/01 00:38:07;;;;;;;27.10;24.25;;;8.90;99.90;;;;;;4999230;28;20564;-39
2021/05/01 00:40:33;;;;;;;29.13;26.10;;;8.90;99.90;;;;;;5008668;28;20220;-41
2021/05/01 00:43:01;;;;;;;28.48;25.45;;;8.80;99.90;;;;;;5012199;28;20236;-39
2021/05/01 00:45:28;;;;;;;29.60;26.33;;;8.90;99.90;;;;;;5006245;28;20209;-39
2021/05/01 00:47:55;;;;;;;27.50;24.70;;;9.00;99.90;;;;;;4998857;28;20285;-39
2021/05/01 00:50:22;;;;;;;24.27;21.70;;;8.90;99.90;;;;;;5005941;28;20239;-40
2021/05/01 00:52:49;;;;;;;27.52;24.65;;;9.00;99.90;;;;;;5011745;28;20564;-40
2021/05/01 00:55:16;;;;;;;28.23;24.63;;;9.00;99.90;;;;;;5004004;28;20193;-40
2021/05/01 00:57:43;;;;;;;29.95;26.75;;;8.90;99.90;;;;;;5013392;28;20201;-41
2021/05/01 01:00:23;;;;;;;27.13;24.25;;;8.90;99.90;;;;;;5009911;28;20207;-39
2021/05/01 01:02:51;;;;;;;27.73;24.92;;;8.90;99.90;;;;;;5009234;28;20224;-40
2021/05/01 01:05:18;;;;;;;30.77;26.60;;;8.80;99.90;;;;;;5010833;28;20726;-40
2021/05/01 01:07:45;;;;;;;27.92;24.33;;;8.80;99.90;;;;;;5011675;28;20204;-40
2021/05/01 01:10:12;;;;;;;26.40;23.65;;;8.80;99.90;;;;;;5005771;28;20205;-40
2021/05/01 01:12:39;;;;;;;28.95;25.38;;;8.80;99.90;;;;;;5001955;28;20225;-41
2021/05/01 01:15:07;;;;;;;28.65;25.65;;;8.80;99.90;;;;;;5000596;28;20247;-41
2021/05/01 01:17:34;;;;;;;27.60;24.30;;;8.60;99.90;;;;;;5002159;28;20211;-39
2021/05/01 01:20:02;;;;;;;30.35;26.08;;;8.50;99.90;;;;;;4993676;28;20672;-39
2021/05/01 01:22:30;;;;;;;29.52;26.42;;;8.40;99.90;;;;;;4994170;28;20235;-39
2021/05/01 01:24:57;;;;;;;28.52;24.65;;;8.50;99.90;;;;;;5008427;28;20266;-39
2021/05/01 01:27:24;;;;;;;27.05;24.30;;;8.60;99.90;;;;;;4999895;28;20188;-39
2021/05/01 01:29:51;;;;;;;30.02;25.77;;;8.50;99.90;;;;;;5006895;28;20201;-39
2021/05/01 01:32:17;;;;;;;30.55;26.48;;;8.40;99.90;;;;;;4993044;28;20723;-39
2021/05/01 01:34:45;;;;;;;27.95;24.98;;;8.20;99.90;;;;;;5011026;28;20246;-42
2021/05/01 01:37:12;;;;;;;28.25;25.20;;;8.10;99.90;;;;;;4998187;28;20284;-39
2021/05/01 01:39:41;;;;;;;31.50;25.63;;;8.10;99.90;;;;;;4995342;28;20200;-39
2021/05/01 01:42:07;;;;;;;28.13;25.13;;;8.10;99.90;;;;;;4998189;28;20216;-40
2021/05/01 01:44:35;;;;;;;25.67;22.83;;;8.20;99.90;;;;;;4997488;28;20218;-39
2021/05/01 01:47:02;;;;;;;28.05;25.05;;;8.20;99.90;;;;;;5010976;28;20227;-40
2021/05/01 01:49:28;;;;;;;29.45;24.95;;;8.20;99.90;;;;;;4995634;28;20198;-39
2021/05/01 01:51:55;;;;;;;30.55;27.25;;;8.20;99.90;;;;;;5008063;28;20220;-39
2021/05/01 01:54:22;;;;;;;30.33;25.85;;;8.30;99.90;;;;;;4995231;28;20224;-39
2021/05/01 01:57:01;;;;;;;29.33;26.02;;;8.20;99.90;;;;;;4994033;28;20197;-39
2021/05/01 01:59:30;;;;;;;32.22;28.95;;;8.20;99.90;;;;;;5001501;28;20544;-40
2021/05/01 02:01:58;;;;;;;32.85;28.02;;;8.20;99.90;;;;;;5007392;28;20225;-41
2021/05/01 02:04:25;;;;;;;32.65;28.98;;;8.10;99.90;;;;;;4993064;28;20264;-40
2021/05/01 02:06:52;;;;;;;28.80;25.90;;;8.20;99.90;;;;;;5004607;28;20472;-40
2021/05/01 02:09:19;;;;;;;30.30;27.08;;;8.30;99.90;;;;;;5003541;28;20201;-40
2021/05/01 02:11:46;;;;;;;28.67;25.58;;;8.10;99.90;;;;;;5000715;28;20221;-40
2021/05/01 02:14:25;;;;;;;29.20;26.10;;;7.90;99.90;;;;;;4995877;28;20254;-40
2021/05/01 02:16:52;;;;;;;31.08;27.75;;;7.80;99.90;;;;;;5009985;28;20208;-40
2021/05/01 02:19:18;;;;;;;31.63;26.83;;;8.00;99.90;;;;;;4992266;28;20629;-40
2021/05/01 02:21:59;;;;;;;28.02;23.35;;;8.10;99.90;;;;;;5006574;28;20251;-40
2021/05/01 02:24:26;;;;;;;30.63;26.35;;;8.20;99.90;;;;;;5002325;28;20251;-41
2021/05/01 02:26:53;;;;;;;33.72;28.45;;;8.30;99.90;;;;;;4993449;28;20201;-41
2021/05/01 02:29:20;;;;;;;29.98;26.67;;;8.40;99.90;;;;;;4998948;28;20676;-41
2021/05/01 02:31:48;;;;;;;29.08;25.63;;;8.40;99.90;;;;;;5007493;28;20210;-39
2021/05/01 02:34:15;;;;;;;28.42;25.48;;;8.40;99.90;;;;;;4992273;28;20687;-42
2021/05/01 02:36:42;;;;;;;28.90;24.85;;;8.50;99.90;;;;;;5003597;28;20235;-39
2021/05/01 02:39:09;;;;;;;30.20;27.05;;;8.40;99.90;;;;;;5002351;28;20207;-40
2021/05/01 02:41:35;;;;;;;29.45;25.40;;;8.40;99.90;;;;;;5002084;28;20217;-40
2021/05/01 02:44:03;;;;;;;28.05;24.90;;;8.40;99.90;;;;;;4992359;28;20315;-39
2021/05/01 02:46:29;;;;;;;29.13;26.05;;;8.50;99.90;;;;;;5005990;28;20734;-41
2021/05/01 02:48:57;;;;;;;29.02;26.02;;;8.50;99.90;;;;;;5003509;28;20209;-40
2021/05/01 02:51:23;;;;;;;31.08;27.83;;;8.60;99.90;;;;;;5010385;28;20240;-41
2021/05/01 02:53:50;;;;;;;27.48;24.63;;;8.60;99.90;;;;;;4992166;28;20206;-40
2021/05/01 02:56:17;;;;;;;29.95;26.75;;;8.60;99.90;;;;;;5002856;28;20193;-40
2021/05/01 02:58:43;;;;;;;30.08;27.08;;;8.60;99.90;;;;;;5001136;28;20227;-40
2021/05/01 03:01:10;;;;;;;28.13;25.13;;;8.50;99.90;;;;;;5011156;28;20201;-40
2021/05/01 03:03:38;;;;;;;27.35;24.50;;;8.40;99.90;;;;;;5000013;28;20236;-40
2021/05/01 03:06:06;;;;;;;29.95;26.75;;;8.30;99.90;;;;;;4992218;28;20275;-40
2021/05/01 03:08:33;;;;;;;29.88;26.42;;;8.10;99.90;;;;;;4991435;28;20216;-40
2021/05/01 03:11:01;;;;;;;31.60;28.13;;;7.90;99.90;;;;;;5009469;28;20204;-40
2021/05/01 03:13:28;;;;;;;31.05;27.50;;;7.70;99.90;;;;;;5011628;28;20221;-42
2021/05/01 03:15:55;;;;;;;33.58;30.00;;;7.50;99.90;;;;;;4993829;28;20200;-40
2021/05/01 03:18:21;;;;;;;32.10;28.70;;;7.40;99.90;;;;;;4993012;28;20615;-40
2021/05/01 03:20:49;;;;;;;29.38;26.25;;;7.30;99.90;;;;;;4996261;28;20197;-40
2021/05/01 03:23:17;;;;;;;33.83;29.23;;;7.40;99.90;;;;;;5010932;23;20225;-41
2021/05/01 03:25:43;;;;;;;30.20;26.25;;;7.50;99.90;;;;;;4989861;28;20700;-40
2021/05/01 03:28:10;;;;;;;30.58;27.27;;;7.50;99.90;;;;;;4997819;28;20211;-40
2021/05/01 03:30:36;;;;;;;32.47;27.33;;;7.60;99.90;;;;;;5006625;28;20319;-41
2021/05/01 03:33:03;;;;;;;31.00;27.85;;;7.50;99.90;;;;;;5004946;28;20209;-40
2021/05/01 03:35:30;;;;;;;29.25;26.20;;;7.50;99.90;;;;;;4989943;28;20193;-40
2021/05/01 03:37:57;;;;;;;31.08;26.15;;;7.60;99.90;;;;;;5005366;28;20200;-40
2021/05/01 03:40:24;;;;;;;29.27;26.33;;;7.50;99.90;;;;;;4996404;28;20211;-40
2021/05/01 03:42:51;;;;;;;33.85;28.35;;;7.50;99.90;;;;;;4989801;28;20232;-40
2021/05/01 03:45:19;;;;;;;31.88;28.45;;;7.60;99.90;;;;;;4991215;28;20227;-41
2021/05/01 03:47:45;;;;;;;34.15;29.73;;;7.50;99.90;;;;;;4989659;28;20564;-40
2021/05/01 03:50:13;;;;;;;29.52;26.42;;;7.40;99.90;;;;;;4999083;28;20212;-40
2021/05/01 03:52:41;;;;;;;33.03;28.17;;;7.50;99.90;;;;;;4997617;28;20216;-42
2021/05/01 03:55:09;;;;;;;29.23;25.98;;;7.40;99.90;;;;;;5008374;28;20193;-40
2021/05/01 03:57:37;;;;;;;28.70;25.60;;;7.40;99.90;;;;;;4990573;28;20292;-40
2021/05/01 04:00:05;;;;;;;28.83;25.70;;;7.30;99.90;;;;;;5006920;28;20201;-40
2021/05/01 04:02:35;;;;;;;28.02;24.90;;;7.50;99.90;;;;;;4997328;28;20216;-41
2021/05/01 04:05:03;;;;;;;28.05;24.65;;;7.60;99.90;;;;;;5008505;28;20623;-40
2021/05/01 04:07:30;;;;;;;29.70;26.48;;;7.70;99.90;;;;;;4990719;28;20213;-41
2021/05/01 04:09:56;;;;;;;30.50;27.25;;;7.70;99.90;;;;;;4990791;28;20200;-40
2021/05/01 04:12:23;;;;;;;30.92;27.83;;;7.70;99.90;;;;;;4993703;28;20208;-42
2021/05/01 04:14:51;;;;;;;32.45;28.77;;;7.90;99.90;;;;;;5008071;28;20271;-40
2021/05/01 04:17:18;;;;;;;29.58;26.38;;;7.90;99.90;;;;;;4990979;28;20224;-40
2021/05/01 04:19:44;;;;;;;31.73;28.38;;;7.90;99.90;;;;;;4997916;28;20338;-40
2021/05/01 04:22:11;;;;;;;32.88;29.33;;;7.90;99.90;;;;;;5006895;28;20303;-41
2021/05/01 04:24:38;;;;;;;31.65;28.13;;;7.90;99.90;;;;;;4990509;28;20696;-41
2021/05/01 04:27:14;;;;;;;31.50;28.10;;;8.00;99.90;;;;;;4992990;28;20281;-40
2021/05/01 04:29:42;;;;;;;30.05;26.55;;;8.00;99.90;;;;;;5004140;28;20668;-41
2021/05/01 04:32:10;;;;;;;29.10;25.95;;;8.10;99.90;;;;;;5006765;28;20407;-40
2021/05/01 04:34:37;;;;;;;30.05;26.90;;;8.10;99.90;;;;;;5002976;28;20197;-40
2021/05/01 04:37:03;;;;;;;30.08;27.02;;;8.20;99.90;;;;;;4998873;28;20219;-40
2021/05/01 04:39:31;;;;;;;31.73;27.58;;;8.10;99.90;;;;;;5001373;28;20208;-41
2021/05/01 04:41:58;;;;;;;33.60;30.10;;;7.80;99.90;;;;;;4992018;28;20221;-40
2021/05/01 04:44:25;;;;;;;31.13;27.80;;;7.70;99.90;;;;;;4999539;28;20221;-41
2021/05/01 04:46:52;;;;;;;34.63;30.92;;;7.60;99.90;;;;;;5000721;28;20201;-40
2021/05/01 04:49:20;;;;;;;31.58;28.15;;;7.80;99.90;;;;;;4999629;28;20266;-41
2021/05/01 04:51:47;;;;;;;31.02;27.70;;;8.00;99.90;;;;;;5007210;28;20201;-42
2021/05/01 04:54:13;;;;;;;30.95;27.75;;;8.10;99.90;;;;;;4992492;28;20607;-40
2021/05/01 04:56:40;;;;;;;34.58;30.95;;;8.20;99.90;;;;;;5000246;28;20276;-40
2021/05/01 04:59:07;;;;;;;33.53;29.90;;;8.30;99.90;;;;;;5005129;28;20212;-41
2021/05/01 05:01:35;;;;;;;29.38;25.80;;;8.40;99.90;;;;;;5002979;28;20224;-41
2021/05/01 05:04:03;;;;;;;31.15;27.83;;;8.50;99.90;;;;;;4973327;28;20272;-40
2021/05/01 05:06:31;;;;;;;31.92;28.48;;;8.60;99.90;;;;;;5006749;28;20632;-40
2021/05/01 05:08:59;;;;;;;30.60;27.30;;;8.70;99.90;;;;;;5000865;28;20313;-41
2021/05/01 05:11:26;;;;;;;31.20;27.95;;;8.80;99.90;;;;;;4992716;28;20251;-41
2021/05/01 05:13:52;;;;;;;29.40;25.75;;;8.90;99.90;;;;;;5000702;28;20311;-41
2021/05/01 05:16:20;;;;;;;31.00;27.77;;;8.90;99.90;;;;;;5008481;28;20240;-41
2021/05/01 05:18:47;;;;;;;32.30;28.98;;;8.90;99.90;;;;;;4993537;28;20201;-41
2021/05/01 05:21:14;;;;;;;30.33;27.15;;;8.90;99.90;;;;;;5006023;28;20205;-41
2021/05/01 05:23:42;;;;;;;29.80;26.48;;;9.00;99.90;;;;;;5001349;28;20656;-41
2021/05/01 05:26:08;;;;;;;31.52;28.30;;;9.10;99.90;;;;;;5009720;28;20232;-41
2021/05/01 05:28:35;;;;;;;32.65;28.33;;;9.10;99.90;;;;;;5004517;28;20256;-41
2021/05/01 05:31:02;;;;;;;28.92;25.85;;;9.10;99.90;;;;;;4993084;28;20297;-41
2021/05/01 05:33:29;;;;;;;29.23;26.23;;;9.10;99.90;;;;;;4993480;28;20390;-40
2021/05/01 05:35:56;;;;;;;28.42;25.63;;;9.00;99.90;;;;;;4999267;28;20266;-41
2021/05/01 05:38:23;;;;;;;28.23;25.38;;;9.00;99.90;;;;;;5001088;28;20197;-40
2021/05/01 05:40:51;;;;;;;27.10;24.30;;;9.00;99.90;;;;;;5006599;28;20272;-42
2021/05/01 05:43:18;;;;;;;28.17;25.33;;;9.00;99.90;;;;;;5005924;28;20209;-42
2021/05/01 05:45:46;;;;;;;27.48;24.88;;;9.10;99.90;;;;;;5000544;28;20213;-41
2021/05/01 05:48:14;;;;;;;26.38;23.67;;;9.10;99.90;;;;;;5006373;28;20280;-40
2021/05/01 05:50:40;;;;;;;26.90;24.20;;;9.10;99.90;;;;;;5010144;28;20211;-41
2021/05/01 05:53:07;;;;;;;27.30;24.42;;;9.20;99.90;;;;;;5008440;28;20220;-40
2021/05/01 05:55:34;;;;;;;27.45;24.65;;;9.20;99.90;;;;;;4991942;28;20728;-43
2021/05/01 05:58:02;;;;;;;26.23;23.48;;;9.30;99.90;;;;;;4998148;28;20196;-41
2021/05/01 06:00:28;;;;;;;25.00;22.52;;;9.50;99.90;;;;;;5000547;28;20260;-40
2021/05/01 06:02:59;;;;;;;25.98;23.27;;;9.60;99.90;;;;;;5001477;28;20285;-40
2021/05/01 06:05:29;;;;;;;28.20;25.40;;;9.70;99.90;;;;;;5009973;28;20359;-42
2021/05/01 06:07:58;;;;;;;27.70;24.90;;;9.90;99.90;;;;;;5010373;28;20288;-42
2021/05/01 06:10:26;;;;;;;29.40;25.90;;;9.90;99.90;;;;;;4984604;28;20201;-41
2021/05/01 06:12:54;;;;;;;26.60;23.90;;;9.90;99.90;;;;;;4993486;28;20239;-46
2021/05/01 06:15:22;;;;;;;29.60;26.38;;;9.90;99.90;;;;;;5007751;28;20198;-39
2021/05/01 06:17:52;;;;;;;31.75;28.50;;;10.20;99.90;;;;;;4991422;28;20255;-40
2021/05/01 06:20:20;;;;;;;32.22;28.77;;;10.20;99.90;;;;;;5000490;28;20205;-41
2021/05/01 06:22:49;;;;;;;32.92;29.10;;;10.00;99.90;;;;;;4997033;28;20604;-41
2021/05/01 06:25:16;;;;;;;30.73;27.63;;;10.10;99.90;;;;;;5008644;28;20213;-40
2021/05/01 06:27:43;;;;;;;34.33;30.13;;;10.20;99.90;;;;;;5004675;28;20211;-42
2021/05/01 06:30:12;;;;;;;30.05;26.95;;;10.40;99.90;;;;;;4998312;28;20611;-40
2021/05/01 06:32:41;;;;;;;30.13;26.58;;;10.60;99.90;;;;;;5009183;28;20307;-42
2021/05/01 06:35:09;;;;;;;30.60;27.40;;;10.70;99.90;;;;;;5010422;28;20223;-41
2021/05/01 06:37:39;;;;;;;32.90;27.75;;;10.80;99.90;;;;;;5007883;28;20200;-42
2021/05/01 06:40:12;;;;;;;32.88;29.42;;;10.80;99.90;;;;;;5053786;22;20236;-83
2021/05/01 06:42:43;;;;;;;31.55;28.25;;;10.80;99.90;;;;;;5060985;28;20210;-82
2021/05/01 06:45:13;;;;;;;38.47;31.85;;;10.70;99.90;;;;;;5057850;28;20219;-83
2021/05/01 06:47:48;;;;;;;28.92;26.00;;;10.60;99.90;;;;;;5048188;28;20234;-82
2021/05/01 06:50:17;;;;;;;31.05;27.85;;;10.60;99.90;;;;;;5047611;28;20199;-85
2021/05/01 06:52:44;;;;;;;29.45;26.45;;;10.60;99.90;;;;;;5046298;28;20203;-82
2021/05/01 06:55:14;;;;;;;27.90;25.00;;;10.70;99.90;;;;;;5056625;28;20196;-83
2021/05/01 06:57:44;;;;;;;32.13;26.35;;;10.60;99.90;;;;;;5056292;28;20223;-83
2021/05/01 07:00:13;;;;;;;29.05;26.15;;;10.60;99.90;;;;;;5057859;28;20207;-82
2021/05/01 07:02:44;;;;;;;27.60;24.80;;;10.80;99.90;;;;;;5067676;28;20226;-83
2021/05/01 07:05:15;;;;;;;28.38;25.48;;;10.80;99.90;;;;;;5064955;28;20590;-83
2021/05/01 07:07:58;;;;;;;27.67;24.80;;;11.10;99.90;;;;;;5050811;28;20223;-84
2021/05/01 07:10:25;;;;;;;26.42;23.85;;;11.40;99.90;;;;;;5059615;28;20193;-81
2021/05/01 07:13:04;;;;;;;29.85;26.80;;;11.60;99.90;;;;;;5038260;28;20199;-80
2021/05/01 07:15:31;;;;;;;27.90;24.95;;;11.70;99.90;;;;;;5054147;28;20652;-83
2021/05/01 07:17:59;;;;;;;26.88;23.25;;;11.70;99.90;;;;;;5062343;28;20233;-82
2021/05/01 07:20:26;;;;;;;26.60;24.00;;;11.90;99.90;;;;;;5066440;28;20211;-83
2021/05/01 07:22:54;;;;;;;26.75;24.00;;;11.90;99.90;;;;;;5049381;28;20227;-82
2021/05/01 07:25:33;;;;;;;31.08;27.73;;;12.10;99.90;;;;;;5058368;28;20275;-81
2021/05/01 07:28:13;;;;;;;25.23;22.77;;;12.20;99.90;;;;;;5027187;28;20239;-81
2021/05/01 07:30:47;;;;;;;25.92;23.20;;;12.30;99.90;;;;;;5050173;28;20198;-79
2021/05/01 07:33:18;;;;;;;26.08;23.35;;;12.30;99.90;;;;;;5039460;28;20208;-82
2021/05/01 07:35:49;;;;;;;24.60;22.10;;;12.50;99.90;;;;;;5059261;28;20658;-85
2021/05/01 07:38:16;;;;;;;31.42;27.25;;;12.70;99.90;;;;;;5066190;28;20219;-84
2021/05/01 07:40:43;;;;;;;24.33;21.90;;;12.70;99.90;;;;;;5060470;28;20281;-83
2021/05/01 07:43:15;;;;;;;24.10;21.73;;;12.80;99.90;;;;;;5067481;28;20206;-86
2021/05/01 07:45:46;;;;;;;34.83;31.08;;;12.70;99.90;;;;;;5052631;28;20457;-81
2021/05/01 07:48:15;;;;;;;24.27;21.75;;;12.90;99.90;;;;;;5039899;28;20224;-81
2021/05/01 07:50:44;;;;;;;23.92;21.33;;;13.20;99.90;;;;;;5048060;28;20200;-84
2021/05/01 07:53:11;;;;;;;22.77;20.58;;;13.50;99.90;;;;;;5056873;28;20199;-81
2021/05/01 07:55:38;;;;;;;23.42;20.95;;;13.40;99.90;;;;;;5060245;28;20200;-81
2021/05/01 07:58:05;;;;;;;23.27;20.88;;;13.40;99.90;;;;;;5054493;28;20211;-84
2021/05/01 08:00:32;;;;;;;23.75;21.25;;;13.60;99.90;;;;;;5065331;28;20248;-81
2021/05/01 08:03:01;;;;;;;23.10;20.70;;;13.60;99.90;;;;;;5053772;28;20759;-85
2021/05/01 08:05:28;;;;;;;22.90;20.55;;;13.50;99.90;;;;;;5055879;28;20207;-82
2021/05/01 08:07:56;;;;;;;22.02;19.75;;;13.60;99.90;;;;;;5054015;28;20291;-81
2021/05/01 08:10:23;;;;;;;19.83;17.92;;;13.80;99.90;;;;;;5061796;28;20180;-81
2021/05/01 08:12:50;;;;;;;21.65;19.40;;;13.90;99.90;;;;;;5058427;28;20200;-83
2021/05/01 08:15:16;;;;;;;22.45;20.08;;;13.70;99.90;;;;;;5049373;28;20229;-84
2021/05/01 08:17:44;;;;;;;21.70;19.48;;;13.80;99.90;;;;;;5061242;28;20226;-84
2021/05/01 08:20:13;;;;;;;22.40;19.80;;;14.10;99.90;;;;;;5055482;28;20195;-83
2021/05/01 08:22:42;;;;;;;20.08;18.10;;;14.30;99.90;;;;;;5065355;28;20257;-84
2021/05/01 08:25:10;;;;;;;21.85;19.58;;;14.40;99.90;;;;;;5056781;28;20230;-85
2021/05/01 08:27:37;;;;;;;22.60;20.33;;;14.00;99.90;;;;;;5060276;28;20294;-84
2021/05/01 08:30:08;;;;;;;22.20;19.98;;;13.60;99.90;;;;;;5065005;28;20199;-85
2021/05/01 08:32:35;;;;;;;23.33;20.98;;;13.40;99.90;;;;;;5048926;28;20492;-86
2021/05/01 08:35:02;;;;;;;31.17;27.63;;;13.50;99.90;;;;;;5054521;28;20188;-82
2021/05/01 08:37:28;;;;;;;22.77;20.58;;;13.90;99.90;;;;;;5056883;28;20215;-84
2021/05/01 08:39:56;;;;;;;20.70;18.65;;;14.40;99.90;;;;;;5059068;28;20204;-86
2021/05/01 08:42:24;;;;;;;19.35;17.20;;;14.30;99.90;;;;;;5061118;28;20199;-86
2021/05/01 08:44:51;;;;;;;18.88;17.08;;;13.40;99.90;;;;;;5068633;28;20239;-86
2021/05/01 08:47:18;;;;;;;19.52;17.58;;;13.50;99.90;;;;;;5058216;28;20266;-84
2021/05/01 08:49:45;;;;;;;22.20;19.02;;;14.20;99.90;;;;;;5065067;28;20229;-89
2021/05/01 08:52:11;;;;;;;21.30;19.15;;;14.40;99.90;;;;;;5054835;28;20195;-87
2021/05/01 08:54:38;;;;;;;21.48;19.30;;;14.40;99.90;;;;;;5054865;28;20191;-84
2021/05/01 08:57:25;;;;;;;20.73;18.63;;;14.40;99.90;;;;;;5048426;28;20288;-87
2021/05/01 08:59:51;;;;;;;22.40;20.15;;;13.90;99.90;;;;;;5048999;28;20260;-81
2021/05/01 09:02:20;;;;;;;24.73;20.70;;;14.00;99.90;;;;;;5050202;28;20271;-87
2021/05/01 09:04:49;;;;;;;22.90;20.50;;;13.90;99.90;;;;;;5075362;28;20215;-84
2021/05/01 09:07:17;;;;;;;22.25;20.02;;;14.10;99.90;;;;;;5066420;28;20277;-86
2021/05/01 09:09:51;;;;;;;22.15;19.88;;;14.30;99.90;;;;;;5051924;28;20704;-84
2021/05/01 09:12:34;;;;;;;22.00;19.75;;;14.60;99.90;;;;;;5050205;28;20187;-82
2021/05/01 09:15:08;;;;;;;22.42;20.23;;;15.00;99.90;;;;;;5049653;28;20238;-83
2021/05/01 09:17:35;;;;;;;22.88;20.52;;;14.80;99.90;;;;;;5048828;28;20254;-83
2021/05/01 09:20:05;;;;;;;25.40;22.98;;;14.40;99.90;;;;;;5051086;28;20196;-82
2021/05/01 09:22:58;;;;;;;19.38;17.38;;;14.30;99.90;;;;;;5057222;28;20281;-84
2021/05/01 09:25:27;;;;;;;17.00;15.38;;;14.50;99.90;;;;;;5056837;28;20219;-81
2021/05/01 09:28:14;;;;;;;15.95;13.95;;;14.20;99.90;;;;;;5054442;28;21203;-84
2021/05/01 09:30:58;;;;;;;17.60;15.50;;;13.90;99.90;;;;;;5049610;28;20221;-85
2021/05/01 09:33:27;;;;;;;18.85;16.92;;;13.80;99.90;;;;;;5063805;28;20210;-82
2021/05/01 09:35:58;;;;;;;18.42;16.63;;;13.60;99.90;;;;;;5046800;28;20203;-82
2021/05/01 09:38:29;;;;;;;21.27;17.52;;;13.40;99.90;;;;;;5059513;28;20219;-85
2021/05/01 09:40:56;;;;;;;19.88;17.65;;;13.70;99.90;;;;;;5066358;28;20620;-85
2021/05/01 09:43:24;;;;;;;18.30;16.50;;;13.40;99.90;;;;;;5055548;28;20184;-85
2021/05/01 09:45:51;;;;;;;17.85;16.05;;;13.40;99.90;;;;;;5064159;28;20223;-82
2021/05/01 09:48:20;;;;;;;20.08;16.65;;;13.30;99.90;;;;;;5059586;28;20218;-86
2021/05/01 09:50:47;;;;;;;16.52;14.93;;;13.60;99.90;;;;;;5059189;28;20263;-84
2021/05/01 09:53:17;;;;;;;17.35;15.65;;;13.70;99.90;;;;;;5054749;28;20203;-81
2021/05/01 09:55:47;;;;;;;17.77;16.08;;;13.60;99.90;;;;;;5067272;28;20252;-82
2021/05/01 09:58:20;;;;;;;19.45;17.02;;;13.50;99.90;;;;;;5064230;28;20630;-82
2021/05/01 10:00:51;;;;;;;17.60;15.93;;;13.30;99.90;;;;;;5064827;28;20179;-81
2021/05/01 10:03:27;;;;;;;20.92;18.73;;;13.30;99.90;;;;;;5054356;28;20223;-81
2021/05/01 10:06:00;;;;;;;26.90;24.23;;;13.20;99.90;;;;;;5062066;28;20209;-82
2021/05/01 10:08:29;;;;;;;27.17;24.42;;;13.70;99.90;;;;;;5043475;28;20215;-82
2021/05/01 10:10:58;;;;;;;30.13;27.02;;;13.60;99.90;;;;;;5051442;28;20259;-84
2021/05/01 10:13:25;;;;;;;31.27;27.98;;;13.30;99.90;;;;;;5057289;28;20196;-83
2021/05/01 10:15:54;;;;;;;31.50;28.25;;;13.10;99.90;;;;;;5047916;28;20196;-83
2021/05/01 10:18:20;;;;;;;34.33;30.73;;;13.10;99.90;;;;;;5054295;28;20241;-80
2021/05/01 10:20:49;;;;;;;36.25;32.45;;;13.10;99.90;;;;;;5050854;28;20203;-85
2021/05/01 10:23:19;;;;;;;36.35;32.47;;;12.90;99.90;;;;;;5052154;28;20217;-84
2021/05/01 10:25:46;;;;;;;40.20;34.92;;;12.80;99.90;;;;;;5055529;28;20212;-88
2021/05/01 10:28:17;;;;;;;36.05;31.88;;;12.60;99.90;;;;;;5045453;28;20219;-83
2021/05/01 10:30:46;;;;;;;36.50;32.40;;;12.70;99.90;;;;;;5043926;28;20276;-81
2021/05/01 10:33:30;;;;;;;42.13;35.22;;;12.60;99.90;;;;;;5053542;28;20216;-83
2021/05/01 10:36:04;;;;;;;43.08;35.47;;;13.00;99.90;;;;;;5055494;28;20187;-81
2021/05/01 10:38:33;;;;;;;39.85;35.55;;;13.60;99.90;;;;;;5053592;28;20196;-84
2021/05/01 10:41:17;;;;;;;42.53;35.05;;;14.20;99.90;;;;;;5048517;28;20220;-85
2021/05/01 10:43:54;;;;;;;37.90;33.63;;;14.60;99.90;;;;;;5060292;28;20256;-84
2021/05/01 10:46:25;;;;;;;41.13;35.00;;;14.40;99.90;;;;;;5061898;28;20246;-85
2021/05/01 10:48:55;;;;;;;42.70;34.60;;;14.40;99.90;;;;;;5049633;28;20425;-87
2021/05/01 10:51:23;;;;;;;32.65;28.58;;;14.10;99.90;;;;;;5051621;28;20205;-82
2021/05/01 10:54:09;;;;;;;37.30;33.28;;;14.30;99.90;;;;;;5047289;28;20242;-82
2021/05/01 10:56:43;;;;;;;44.30;38.95;;;13.90;99.90;;;;;;5052938;28;20271;-82
2021/05/01 10:59:11;;;;;;;42.58;36.38;;;13.50;99.90;;;;;;5057764;28;20223;-85
2021/05/01 11:01:46;;;;;;;40.03;33.22;;;13.50;99.90;;;;;;5063989;28;20246;-85
2021/05/01 11:04:19;;;;;;;40.55;34.53;;;13.80;99.90;;;;;;5054406;28;20196;-83
2021/05/01 11:06:47;;;;;;;38.13;33.42;;;13.70;99.90;;;;;;5040414;28;20769;-82
2021/05/01 11:09:26;;;;;;;43.78;34.63;;;13.80;99.90;;;;;;5050999;28;20200;-87
2021/05/01 11:12:00;;;;;;;37.95;33.72;;;14.00;99.90;;;;;;5032428;28;20215;-84
2021/05/01 11:14:30;;;;;;;40.53;33.55;;;13.80;99.90;;;;;;5050067;28;20617;-86
2021/05/01 11:17:11;;;;;;;35.78;31.17;;;14.10;99.90;;;;;;5048503;28;20219;-87
2021/05/01 11:19:44;;;;;;;36.75;31.33;;;15.10;99.90;;;;;;5028701;28;20264;-85
2021/05/01 11:22:19;;;;;;;34.78;29.83;;;15.20;99.90;;;;;;5068473;28;20199;-82
2021/05/01 11:24:48;;;;;;;33.72;29.40;;;14.90;99.90;;;;;;5028046;28;20185;-83
2021/05/01 11:27:15;;;;;;;33.85;30.27;;;15.60;99.90;;;;;;5029805;28;20216;-81
2021/05/01 11:29:43;;;;;;;34.67;30.45;;;16.20;99.90;;;;;;5028992;28;20312;-82
2021/05/01 11:32:12;;;;;;;29.65;25.92;;;16.40;99.90;;;;;;5028066;28;20255;-84
2021/05/01 11:34:39;;;;;;;32.78;28.52;;;16.50;99.90;;;;;;5030394;28;20200;-84
2021/05/01 11:37:08;;;;;;;32.88;29.38;;;16.30;99.90;;;;;;5027336;28;20225;-85
2021/05/01 11:39:40;;;;;;;29.90;26.67;;;16.70;99.90;;;;;;5028155;28;20310;-86
2021/05/01 11:42:08;;;;;;;32.67;29.27;;;17.00;99.90;;;;;;5048369;28;20200;-83
2021/05/01 11:44:38;;;;;;;31.98;28.52;;;16.90;99.90;;;;;;5045689;28;20294;-86
2021/05/01 11:47:09;;;;;;;37.83;30.38;;;16.80;99.90;;;;;;5045732;28;20228;-83
2021/05/01 11:49:39;;;;;;;33.22;29.65;;;16.20;99.90;;;;;;5048890;28;20192;-82
2021/05/01 11:52:46;;;;;;;37.50;32.70;;;16.00;99.90;;;;;;5048416;28;20203;-84
2021/05/01 11:55:23;;;;;;;37.80;33.67;;;16.00;99.90;;;;;;5046946;28;20195;-83
2021/05/01 11:57:55;;;;;;;32.63;29.10;;;15.80;99.90;;;;;;5048458;28;20219;-85
2021/05/01 12:00:35;;;;;;;33.58;29.90;;;15.40;99.90;;;;;;5051040;28;20200;-84
2021/05/01 12:03:22;;;;;;;38.13;33.92;;;15.70;99.90;;;;;;5033294;28;20571;-84
2021/05/01 12:05:54;;;;;;;38.53;32.75;;;15.60;99.90;;;;;;5050905;28;20215;-83
2021/05/01 12:08:26;;;;;;;36.38;30.42;;;15.70;99.90;;;;;;5050787;28;20212;-83
2021/05/01 12:10:59;;;;;;;35.88;30.52;;;16.20;99.90;;;;;;5048207;28;20192;-84
2021/05/01 12:13:34;;;;;;;33.15;29.02;;;16.70;99.90;;;;;;5031490;28;20268;-84
2021/05/01 12:16:02;;;;;;;35.17;31.45;;;17.10;99.90;;;;;;5048712;28;20262;-83
2021/05/01 12:18:42;;;;;;;34.75;28.15;;;16.50;99.90;;;;;;5051614;28;20220;-84
2021/05/01 12:21:14;;;;;;;35.72;31.05;;;16.20;99.90;;;;;;5051991;28;20164;-88
2021/05/01 12:23:44;;;;;;;40.67;34.03;;;16.30;99.90;;;;;;5056284;28;20233;-88
2021/05/01 12:26:36;;;;;;;38.17;33.10;;;16.20;99.90;;;;;;5056271;28;20200;-89
2021/05/01 12:29:31;;;;;;;43.50;36.92;;;15.80;99.90;;;;;;5056405;28;20200;-89
2021/05/01 12:32:03;;;;;;;38.92;34.70;;;15.70;99.90;;;;;;5056913;28;20196;-89
2021/05/01 12:34:57;;;;;;;43.03;35.58;;;15.60;99.90;;;;;;5057096;28;20169;-91
2021/05/01 12:37:27;;;;;;;38.00;33.50;;;15.20;99.90;;;;;;5056801;28;20283;-92
2021/05/01 12:40:08;;;;;;;38.60;33.40;;;15.00;99.90;;;;;;5057142;28;20192;-94
2021/05/01 12:42:38;;;;;;;46.88;40.40;;;14.70;99.90;;;;;;5056696;28;20210;-90